Time;durP1;ratioP1;P1;durP2;ratioP2;P2;SDS_P1;SDS_P2;PMS_P1;PMS_P2;Temp;Humidity;BMP_temperature;BMP_pressure;BME280_temperature;BME280_humidity;BME280_pressure;Samples;Min_cycle;Max_cycle;Signal;HPM_P1;HPM_P2
2022/01/28 00:02:27;;;;;;;2.67;1.20;;;16.60;56.10;;;;;;5017903;28;20145;-71
2022/01/28 00:04:53;;;;;;;2.92;1.05;;;16.60;56.10;;;;;;5010279;28;20049;-71
2022/01/28 00:07:19;;;;;;;3.22;1.10;;;16.60;56.10;;;;;;5016405;28;20120;-68
2022/01/28 00:09:44;;;;;;;3.40;0.88;;;16.60;56.10;;;;;;5019991;28;20029;-70
2022/01/28 00:12:11;;;;;;;2.80;0.90;;;16.50;56.00;;;;;;5017105;28;20045;-70
2022/01/28 00:15:19;;;;;;;3.42;1.17;;;16.50;56.10;;;;;;5014857;28;20057;-69
2022/01/28 00:18:15;;;;;;;2.45;0.98;;;16.60;56.10;;;;;;5013194;28;20057;-71
2022/01/28 00:39:13;;;;;;;1.42;0.80;;;16.60;56.00;;;;;;5015293;28;20713;-68
2022/01/28 00:41:38;;;;;;;2.78;1.02;;;16.60;55.90;;;;;;5022993;28;20149;-66
2022/01/28 00:44:04;;;;;;;2.25;0.85;;;16.60;55.90;;;;;;5021611;28;20548;-70
2022/01/28 00:46:29;;;;;;;1.80;0.73;;;16.60;55.90;;;;;;5010970;28;20105;-69
2022/01/28 00:48:56;;;;;;;1.60;0.90;;;16.60;55.80;;;;;;5017705;28;20041;-68
2022/01/28 00:51:21;;;;;;;2.05;0.70;;;16.60;55.80;;;;;;5005948;28;20034;-70
2022/01/28 00:53:47;;;;;;;1.73;0.90;;;16.60;55.80;;;;;;5008559;28;20619;-66
2022/01/28 00:56:12;;;;;;;1.92;0.70;;;16.60;55.70;;;;;;5010589;28;20083;-70
2022/01/28 00:58:38;;;;;;;2.92;0.60;;;16.60;55.80;;;;;;5010689;28;20022;-66
2022/01/28 01:01:03;;;;;;;4.35;1.73;;;16.60;55.80;;;;;;5004231;28;20030;-67
2022/01/28 01:03:29;;;;;;;1.38;0.65;;;16.60;55.80;;;;;;5017727;28;20025;-71
2022/01/28 01:05:54;;;;;;;4.38;0.70;;;16.60;55.90;;;;;;5007034;28;20034;-67
2022/01/28 01:08:20;;;;;;;3.47;1.40;;;16.60;55.90;;;;;;5011233;28;20021;-68
2022/01/28 01:10:46;;;;;;;1.42;0.70;;;16.60;55.90;;;;;;5009065;28;20423;-71
2022/01/28 01:13:11;;;;;;;2.58;0.80;;;16.60;55.90;;;;;;5016862;28;20167;-67
2022/01/28 01:15:41;;;;;;;0.95;0.55;;;16.60;55.90;;;;;;5004838;28;20111;-67
2022/01/28 01:20:50;;;;;;;1.58;0.60;;;16.70;56.00;;;;;;5013795;28;20500;-67
2022/01/28 01:23:24;;;;;;;2.00;0.65;;;16.60;56.00;;;;;;5019184;28;20376;-71
2022/01/28 01:25:51;;;;;;;2.17;0.98;;;16.70;56.00;;;;;;5015029;28;20049;-67
2022/01/28 01:28:19;;;;;;;2.50;0.65;;;16.70;55.90;;;;;;4993132;28;20014;-70
2022/01/28 01:30:45;;;;;;;2.22;0.60;;;16.70;55.80;;;;;;5014752;28;20030;-71
2022/01/28 01:33:11;;;;;;;2.10;0.50;;;16.70;55.80;;;;;;5012417;28;20044;-67
2022/01/28 01:35:37;;;;;;;2.95;0.60;;;16.70;55.80;;;;;;5008574;28;20026;-71
2022/01/28 01:38:03;;;;;;;1.67;0.50;;;16.70;55.70;;;;;;5010234;28;20041;-67
2022/01/28 01:40:34;;;;;;;1.60;0.70;;;16.70;55.70;;;;;;5009677;28;20033;-70
2022/01/28 01:43:12;;;;;;;1.23;0.60;;;16.70;55.70;;;;;;5011707;28;20056;-71
2022/01/28 01:45:55;;;;;;;1.90;0.50;;;16.70;55.60;;;;;;4991384;28;20623;-68
2022/01/28 01:53:49;;;;;;;1.23;0.50;;;16.70;55.40;;;;;;5018897;28;20053;-67
2022/01/28 01:56:14;;;;;;;1.25;0.50;;;16.70;55.50;;;;;;5004408;28;20068;-67
2022/01/28 01:58:41;;;;;;;1.00;0.60;;;16.70;55.50;;;;;;5016605;28;20036;-71
2022/01/28 02:01:06;;;;;;;3.28;0.60;;;16.70;55.50;;;;;;5009594;28;20442;-67
2022/01/28 02:03:32;;;;;;;0.93;0.40;;;16.70;55.60;;;;;;5013955;28;20041;-67
2022/01/28 02:05:58;;;;;;;1.77;0.70;;;16.70;55.60;;;;;;5009674;28;20150;-67
2022/01/28 02:08:27;;;;;;;1.05;0.50;;;16.70;55.60;;;;;;5016439;28;20041;-68
2022/01/28 02:10:57;;;;;;;1.23;0.60;;;16.70;55.60;;;;;;5003455;28;20359;-71
2022/01/28 02:13:26;;;;;;;2.35;0.50;;;16.70;55.60;;;;;;5010089;28;20222;-67
2022/01/28 02:15:53;;;;;;;3.03;0.50;;;16.70;55.50;;;;;;5007133;28;20038;-67
2022/01/28 02:18:19;;;;;;;1.60;0.50;;;16.70;55.50;;;;;;4998449;28;20036;-67
2022/01/28 02:20:48;;;;;;;2.55;0.60;;;16.70;55.40;;;;;;5009630;28;20037;-66
2022/01/28 02:23:14;;;;;;;1.45;0.63;;;16.70;55.30;;;;;;4994624;28;20034;-70
2022/01/28 02:25:40;;;;;;;1.27;0.50;;;16.70;55.30;;;;;;5012040;28;20415;-67
2022/01/28 02:28:08;;;;;;;1.98;0.50;;;16.70;55.20;;;;;;5004843;28;20504;-68
2022/01/28 02:30:33;;;;;;;0.93;0.45;;;16.70;55.20;;;;;;5002298;28;20068;-72
2022/01/28 02:33:10;;;;;;;0.88;0.45;;;16.70;55.10;;;;;;5016664;28;20057;-67
2022/01/28 02:35:37;;;;;;;1.60;0.52;;;16.70;55.00;;;;;;5012377;28;20052;-67
2022/01/28 02:38:03;;;;;;;0.75;0.32;;;16.70;55.00;;;;;;5000681;28;20544;-69
2022/01/28 02:40:28;;;;;;;3.42;0.60;;;16.70;55.00;;;;;;5012904;28;20116;-71
2022/01/28 02:43:03;;;;;;;1.85;0.63;;;16.70;55.00;;;;;;5009148;28;20032;-67
2022/01/28 02:45:35;;;;;;;1.58;0.40;;;16.70;54.90;;;;;;5013925;28;20045;-66
2022/01/28 02:48:08;;;;;;;0.60;0.60;;;16.70;55.50;;;;;;5013819;28;20042;-68
2022/01/28 02:51:12;;;;;;;1.27;0.50;;;16.70;54.90;;;;;;5005647;28;20038;-69
2022/01/28 02:53:29;;;;;;;1.33;0.40;;;16.70;54.80;;;;;;5012047;28;20026;-67
2022/01/28 02:56:01;;;;;;;1.70;0.70;;;16.70;54.70;;;;;;4999969;28;20578;-68
2022/01/28 02:58:27;;;;;;;2.03;0.60;;;16.70;54.70;;;;;;5019013;28;20030;-68
2022/01/28 03:00:54;;;;;;;1.17;0.50;;;16.70;54.60;;;;;;5006523;28;20193;-67
2022/01/28 03:03:22;;;;;;;1.10;0.52;;;16.70;54.60;;;;;;5010410;28;20053;-67
2022/01/28 03:05:48;;;;;;;0.77;0.32;;;16.70;54.60;;;;;;5008978;28;20041;-69
2022/01/28 03:08:13;;;;;;;1.13;0.50;;;16.70;54.50;;;;;;5017429;28;20107;-68
2022/01/28 03:11:31;;;;;;;0.90;0.40;;;16.70;54.50;;;;;;4991625;28;20117;-67
2022/01/28 03:13:56;;;;;;;2.10;0.65;;;16.70;54.50;;;;;;5009193;28;20374;-67
2022/01/28 03:16:20;;;;;;;1.30;0.55;;;16.70;54.50;;;;;;4999812;28;20061;-68
2022/01/28 03:23:54;;;;;;;2.03;0.65;;;16.60;54.50;;;;;;5011766;28;20037;-68
2022/01/28 03:26:20;;;;;;;4.30;0.55;;;16.70;54.50;;;;;;5009122;28;20041;-68
2022/01/28 03:28:45;;;;;;;1.58;0.70;;;16.60;54.50;;;;;;5005703;28;20022;-68
2022/01/28 03:31:11;;;;;;;1.60;0.60;;;16.70;54.60;;;;;;5001737;28;20113;-67
2022/01/28 03:33:36;;;;;;;3.22;0.68;;;16.60;54.60;;;;;;5014278;28;20029;-68
2022/01/28 03:36:04;;;;;;;0.88;0.50;;;16.60;54.60;;;;;;5009221;28;20620;-67
2022/01/28 03:38:30;;;;;;;0.95;0.50;;;16.70;54.60;;;;;;5024118;28;20046;-68
2022/01/28 03:40:56;;;;;;;0.65;0.40;;;16.60;54.60;;;;;;5010485;28;20034;-67
2022/01/28 03:43:22;;;;;;;1.25;0.40;;;16.60;54.60;;;;;;5020543;28;20437;-68
2022/01/28 03:45:48;;;;;;;1.65;0.45;;;16.60;54.60;;;;;;5008143;28;20034;-72
2022/01/28 03:48:13;;;;;;;1.17;0.50;;;16.60;54.60;;;;;;5020433;28;20189;-68
2022/01/28 03:50:39;;;;;;;1.08;0.40;;;16.70;54.60;;;;;;5012131;28;20037;-67
2022/01/28 03:53:05;;;;;;;1.05;0.55;;;16.60;54.60;;;;;;5010323;28;20137;-67
2022/01/28 03:55:31;;;;;;;1.15;0.50;;;16.60;54.60;;;;;;5007645;28;20034;-67
2022/01/28 03:57:56;;;;;;;0.68;0.40;;;16.60;54.50;;;;;;5014715;28;20462;-67
2022/01/28 04:00:28;;;;;;;3.13;0.50;;;16.60;54.50;;;;;;5015535;28;20092;-67
2022/01/28 04:03:36;;;;;;;2.42;0.50;;;16.60;54.50;;;;;;5011608;28;20160;-71
2022/01/28 04:13:53;;;;;;;1.17;0.52;;;16.60;54.40;;;;;;5022825;28;20502;-67
2022/01/28 04:18:50;;;;;;;2.28;0.60;;;16.60;54.30;;;;;;5014064;28;20113;-66
2022/01/28 04:21:15;;;;;;;2.28;0.57;;;16.60;54.30;;;;;;5013373;28;20113;-66
2022/01/28 04:23:41;;;;;;;1.33;0.20;;;16.60;54.20;;;;;;5002257;28;20105;-69
2022/01/28 04:26:06;;;;;;;0.80;0.40;;;16.60;54.30;;;;;;5008479;28;20038;-67
2022/01/28 04:28:32;;;;;;;1.08;0.40;;;16.60;54.10;;;;;;5010021;28;20025;-66
2022/01/28 04:30:57;;;;;;;0.93;0.60;;;16.60;54.10;;;;;;5019523;28;21788;-67
2022/01/28 04:33:23;;;;;;;1.92;0.40;;;16.60;54.20;;;;;;5014678;28;20025;-66
2022/01/28 04:35:52;;;;;;;0.30;0.20;;;16.60;54.00;;;;;;5010016;28;20088;-71
2022/01/28 04:38:30;;;;;;;2.25;0.73;;;16.60;54.00;;;;;;5007021;28;20029;-67
2022/01/28 04:43:28;;;;;;;3.05;0.47;;;16.60;54.00;;;;;;5019834;28;20067;-67
2022/01/28 04:46:05;;;;;;;1.80;0.40;;;16.60;53.80;;;;;;4998099;28;20044;-67
2022/01/28 04:58:57;;;;;;;2.25;0.63;;;16.60;53.80;;;;;;5010525;28;20164;-67
2022/01/28 05:06:54;;;;;;;3.50;0.63;;;16.60;53.70;;;;;;5010496;28;20393;-66
2022/01/28 05:09:51;;;;;;;3.15;0.68;;;16.50;53.70;;;;;;5013439;28;20041;-66
2022/01/28 05:26:21;;;;;;;3.90;0.47;;;16.50;54.10;;;;;;5008517;28;20148;-67
2022/01/28 05:28:35;;;;;;;2.17;0.70;;;16.50;54.20;;;;;;4993067;28;20642;-67
2022/01/28 05:31:01;;;;;;;0.63;0.40;;;16.50;54.30;;;;;;5011115;28;20381;-65
2022/01/28 05:33:26;;;;;;;1.30;0.47;;;16.50;54.30;;;;;;5017413;28;20049;-67
2022/01/28 05:35:51;;;;;;;1.95;0.60;;;16.50;54.30;;;;;;5003830;28;20022;-69
2022/01/28 05:38:17;;;;;;;2.13;0.80;;;16.50;54.30;;;;;;5007119;28;20176;-66
2022/01/28 05:40:42;;;;;;;1.40;0.40;;;16.50;54.40;;;;;;4992173;28;20516;-66
2022/01/28 05:43:08;;;;;;;1.98;0.50;;;16.50;54.80;;;;;;5016304;28;20041;-68
2022/01/28 05:45:33;;;;;;;2.10;0.50;;;16.50;54.40;;;;;;5016677;28;20030;-68
2022/01/28 05:47:59;;;;;;;2.42;0.70;;;16.50;54.50;;;;;;5009032;28;20025;-70
2022/01/28 05:50:24;;;;;;;1.48;0.60;;;16.50;54.50;;;;;;5010912;28;20033;-68
2022/01/28 05:52:50;;;;;;;1.42;0.90;;;16.50;54.50;;;;;;4997571;28;20079;-68
2022/01/28 05:55:15;;;;;;;2.22;0.57;;;16.50;54.50;;;;;;5010053;28;20033;-70
2022/01/28 05:57:41;;;;;;;2.85;0.63;;;16.50;54.50;;;;;;5015359;28;20377;-67
2022/01/28 06:00:07;;;;;;;2.75;0.70;;;16.50;54.60;;;;;;5014505;28;20641;-67
2022/01/28 06:02:32;;;;;;;2.60;0.63;;;16.50;54.60;;;;;;5005377;28;20112;-70
2022/01/28 06:04:58;;;;;;;2.40;0.50;;;16.50;54.60;;;;;;5008874;28;20113;-64
2022/01/28 06:07:24;;;;;;;1.98;0.65;;;16.50;54.60;;;;;;5004360;28;20420;-67
2022/01/28 06:09:49;;;;;;;2.08;0.52;;;16.60;54.60;;;;;;5017034;28;20117;-64
2022/01/28 06:12:15;;;;;;;1.98;0.52;;;16.60;54.60;;;;;;5009024;28;20084;-68
2022/01/28 06:14:40;;;;;;;2.13;0.45;;;16.60;54.60;;;;;;5013299;28;20105;-69
2022/01/28 06:17:06;;;;;;;1.63;0.60;;;16.60;54.70;;;;;;5012815;28;20036;-69
2022/01/28 06:19:31;;;;;;;1.70;0.50;;;16.60;54.80;;;;;;5004640;28;20454;-67
2022/01/28 06:21:57;;;;;;;1.63;0.43;;;16.60;54.80;;;;;;5007776;28;20026;-64
2022/01/28 06:24:22;;;;;;;5.28;0.93;;;16.60;54.80;;;;;;5010659;28;20037;-64
2022/01/28 06:26:48;;;;;;;1.92;0.50;;;16.60;54.90;;;;;;5008250;28;20036;-68
2022/01/28 06:29:14;;;;;;;3.55;0.68;;;16.60;55.10;;;;;;5014776;28;20052;-64
2022/01/28 06:31:40;;;;;;;3.33;0.70;;;16.60;55.20;;;;;;5007686;28;20042;-68
2022/01/28 06:34:05;;;;;;;3.67;0.60;;;16.60;55.20;;;;;;4996162;28;20097;-68
2022/01/28 06:36:31;;;;;;;5.22;1.00;;;16.60;55.20;;;;;;5014210;28;20040;-69
2022/01/28 06:38:56;;;;;;;3.17;0.98;;;16.60;55.20;;;;;;5016425;28;20045;-65
2022/01/28 06:41:22;;;;;;;5.22;0.95;;;16.60;55.20;;;;;;5012509;28;20049;-69
2022/01/28 06:43:47;;;;;;;3.97;0.68;;;16.60;55.10;;;;;;5016542;28;20774;-68
2022/01/28 06:46:13;;;;;;;4.20;0.73;;;16.50;55.00;;;;;;5021010;28;20117;-64
2022/01/28 06:48:38;;;;;;;4.68;0.90;;;16.60;55.10;;;;;;5017927;28;20061;-65
2022/01/28 06:51:04;;;;;;;2.13;0.77;;;16.60;55.00;;;;;;5008065;28;20021;-64
2022/01/28 06:53:29;;;;;;;3.65;0.80;;;16.60;54.80;;;;;;5010987;28;20389;-66
2022/01/28 06:55:55;;;;;;;3.97;0.70;;;16.60;54.70;;;;;;5007781;28;20030;-62
2022/01/28 06:58:20;;;;;;;3.25;0.63;;;16.60;54.50;;;;;;5016839;28;20105;-64
2022/01/28 07:00:46;;;;;;;6.93;1.50;;;16.70;54.30;;;;;;5016808;28;20022;-64
2022/01/28 07:03:12;;;;;;;4.90;1.00;;;16.70;54.10;;;;;;5011926;28;20598;-66
2022/01/28 07:05:38;;;;;;;4.20;1.15;;;16.70;53.90;;;;;;5013412;28;20771;-67
2022/01/28 07:08:04;;;;;;;3.78;0.95;;;16.70;53.70;;;;;;5027104;28;20056;-67
2022/01/28 07:10:30;;;;;;;7.57;1.50;;;16.70;53.70;;;;;;5024662;28;20129;-69
2022/01/28 07:12:56;;;;;;;3.67;1.00;;;16.70;53.50;;;;;;5012401;28;20172;-67
2022/01/28 07:15:25;;;;;;;3.03;1.52;;;16.70;53.30;;;;;;5022404;28;20049;-68
2022/01/28 07:17:54;;;;;;;6.03;1.17;;;16.70;53.20;;;;;;5011946;28;20111;-70
2022/01/28 07:20:19;;;;;;;4.70;1.00;;;16.70;53.10;;;;;;5009260;28;20029;-68
2022/01/28 07:22:45;;;;;;;4.40;1.42;;;16.60;53.00;;;;;;5012589;28;20040;-67
2022/01/28 07:25:10;;;;;;;4.97;1.17;;;16.60;53.00;;;;;;5016958;28;20036;-67
2022/01/28 07:27:36;;;;;;;8.90;2.45;;;16.60;52.90;;;;;;5012318;28;20676;-68
2022/01/28 07:30:02;;;;;;;6.55;1.92;;;16.60;52.80;;;;;;5016265;28;20083;-67
2022/01/28 07:32:27;;;;;;;12.48;4.72;;;16.60;52.40;;;;;;5011129;28;20026;-66
2022/01/28 07:34:53;;;;;;;15.05;5.03;;;16.60;52.40;;;;;;5016806;28;20046;-66
2022/01/28 07:37:18;;;;;;;11.65;4.68;;;16.60;52.60;;;;;;5016444;28;20213;-68
2022/01/28 07:39:45;;;;;;;11.27;3.95;;;16.60;52.60;;;;;;5010072;28;20026;-68
2022/01/28 07:42:10;;;;;;;11.27;4.85;;;16.60;52.40;;;;;;5005599;28;20053;-67
2022/01/28 07:44:36;;;;;;;10.93;4.13;;;16.60;52.40;;;;;;5010680;28;20046;-67
2022/01/28 07:47:01;;;;;;;12.82;3.60;;;16.60;52.60;;;;;;5022245;28;20025;-67
2022/01/28 07:49:27;;;;;;;12.70;3.92;;;16.60;52.60;;;;;;5017690;28;20479;-67
2022/01/28 07:51:52;;;;;;;14.38;3.83;;;16.60;52.70;;;;;;5011058;28;20071;-67
2022/01/28 07:54:18;;;;;;;14.35;3.30;;;16.60;52.70;;;;;;5011873;28;20094;-69
2022/01/28 07:56:46;;;;;;;14.30;4.80;;;16.60;52.60;;;;;;5020378;28;20041;-66
2022/01/28 07:59:12;;;;;;;28.65;12.35;;;16.60;52.80;;;;;;5014230;28;20050;-69
2022/01/28 08:01:37;;;;;;;34.45;16.48;;;16.60;53.90;;;;;;5015383;28;20036;-68
2022/01/28 08:04:03;;;;;;;43.60;18.70;;;16.60;54.60;;;;;;5022329;28;20038;-68
2022/01/28 08:06:30;;;;;;;42.58;19.00;;;16.60;55.10;;;;;;5018860;28;20547;-68
2022/01/28 08:08:57;;;;;;;41.40;17.95;;;16.60;55.30;;;;;;5014487;28;20045;-68
2022/01/28 08:11:22;;;;;;;35.30;17.02;;;16.60;55.40;;;;;;5016989;28;20026;-67
2022/01/28 08:13:48;;;;;;;34.83;16.55;;;16.60;55.60;;;;;;5016959;28;20040;-67
2022/01/28 08:16:13;;;;;;;42.28;18.42;;;16.60;55.70;;;;;;5013954;28;20408;-67
2022/01/28 08:18:39;;;;;;;36.40;17.17;;;16.60;55.80;;;;;;5018797;28;20488;-68
2022/01/28 08:21:04;;;;;;;36.05;15.93;;;16.60;55.80;;;;;;5012868;28;20034;-68
2022/01/28 08:23:30;;;;;;;38.67;15.70;;;16.60;55.80;;;;;;5019647;28;20033;-69
2022/01/28 08:25:55;;;;;;;31.75;14.57;;;16.60;55.80;;;;;;5014529;28;20037;-68
2022/01/28 08:28:21;;;;;;;34.70;15.02;;;16.60;55.80;;;;;;5019419;28;20029;-67
2022/01/28 08:30:46;;;;;;;37.33;16.02;;;16.60;55.80;;;;;;5022437;28;20025;-69
2022/01/28 08:33:12;;;;;;;36.10;14.38;;;16.60;55.90;;;;;;5013120;28;20501;-69
2022/01/28 08:35:39;;;;;;;27.25;12.82;;;16.60;55.90;;;;;;5016828;28;20053;-68
2022/01/28 08:38:13;;;;;;;28.73;12.55;;;16.60;55.90;;;;;;5018514;28;20665;-68
2022/01/28 08:40:39;;;;;;;30.90;13.70;;;16.60;56.00;;;;;;5012236;28;20109;-66
2022/01/28 08:43:05;;;;;;;33.42;14.52;;;16.60;56.00;;;;;;5015050;28;20064;-68
2022/01/28 08:45:30;;;;;;;24.50;11.75;;;16.50;56.00;;;;;;5011382;28;20033;-68
2022/01/28 08:47:56;;;;;;;29.13;11.98;;;16.50;56.00;;;;;;5009114;28;20102;-66
2022/01/28 08:50:21;;;;;;;27.25;11.88;;;16.50;56.00;;;;;;5009624;28;20120;-67
2022/01/28 08:52:47;;;;;;;26.95;11.90;;;16.60;56.10;;;;;;5011670;28;20025;-69
2022/01/28 08:55:13;;;;;;;28.88;11.85;;;16.60;56.10;;;;;;5022544;28;20117;-70
2022/01/28 08:57:43;;;;;;;30.42;11.35;;;16.60;56.20;;;;;;5013325;28;20045;-69
2022/01/28 09:00:11;;;;;;;34.67;10.98;;;16.50;56.20;;;;;;5009820;28;20511;-68
2022/01/28 09:02:36;;;;;;;27.50;10.13;;;16.60;56.90;;;;;;5017002;28;20549;-68
2022/01/28 09:05:02;;;;;;;22.30;9.70;;;16.60;56.20;;;;;;5017443;28;20048;-68
2022/01/28 09:07:27;;;;;;;26.60;10.80;;;16.60;56.20;;;;;;5012245;28;20496;-69
2022/01/28 09:09:58;;;;;;;27.02;10.63;;;16.60;56.30;;;;;;5022714;28;20045;-69
2022/01/28 09:12:35;;;;;;;22.63;9.82;;;16.60;56.30;;;;;;5011714;28;20041;-68
2022/01/28 09:15:01;;;;;;;27.10;10.48;;;16.60;56.30;;;;;;5020348;28;20084;-69
2022/01/28 09:17:27;;;;;;;24.35;8.73;;;16.60;56.40;;;;;;5016022;28;20029;-69
2022/01/28 09:19:52;;;;;;;22.95;10.43;;;16.60;56.40;;;;;;5010987;28;20032;-68
2022/01/28 09:22:18;;;;;;;22.70;7.90;;;16.60;56.40;;;;;;5011503;28;20030;-69
2022/01/28 09:24:43;;;;;;;17.00;8.98;;;16.60;56.40;;;;;;5017367;28;20443;-69
2022/01/28 09:27:09;;;;;;;23.10;8.73;;;16.60;56.40;;;;;;5009306;28;20029;-69
2022/01/28 09:29:34;;;;;;;23.02;8.88;;;16.60;56.40;;;;;;5012387;28;20106;-68
2022/01/28 09:32:00;;;;;;;18.33;7.97;;;16.60;56.40;;;;;;5014932;28;20041;-69
2022/01/28 09:34:26;;;;;;;18.23;7.53;;;16.60;56.40;;;;;;5009648;28;20022;-68
2022/01/28 09:36:53;;;;;;;15.32;7.10;;;16.60;56.40;;;;;;5016814;28;20026;-68
2022/01/28 09:39:20;;;;;;;17.45;7.60;;;16.60;56.30;;;;;;5013856;28;20033;-67
2022/01/28 09:41:47;;;;;;;18.58;6.93;;;16.60;56.30;;;;;;5015590;28;20382;-68
2022/01/28 09:44:13;;;;;;;14.00;6.10;;;16.60;56.30;;;;;;5017195;28;20496;-66
2022/01/28 09:46:39;;;;;;;18.17;6.70;;;16.70;57.00;;;;;;5010900;28;20061;-68
2022/01/28 09:49:04;;;;;;;19.42;6.28;;;16.60;56.20;;;;;;5007755;28;20046;-67
2022/01/28 09:51:30;;;;;;;11.35;5.63;;;16.60;56.20;;;;;;5011331;28;20511;-70
2022/01/28 09:53:55;;;;;;;12.10;5.78;;;16.60;56.20;;;;;;5016120;28;20029;-69
2022/01/28 09:56:21;;;;;;;14.68;5.25;;;16.60;56.20;;;;;;5013881;28;20084;-69
2022/01/28 09:58:46;;;;;;;12.18;4.93;;;16.60;56.20;;;;;;5010134;28;20528;-69
2022/01/28 10:01:12;;;;;;;10.80;5.05;;;16.60;56.20;;;;;;5011715;28;20039;-68
2022/01/28 10:03:37;;;;;;;11.18;5.13;;;16.60;56.10;;;;;;5013175;28;20029;-69
2022/01/28 10:06:03;;;;;;;13.88;4.90;;;16.60;56.10;;;;;;5017666;28;21379;-69
2022/01/28 10:08:28;;;;;;;12.02;5.45;;;16.60;56.10;;;;;;5014337;28;20030;-68
2022/01/28 10:11:14;;;;;;;11.52;4.40;;;16.60;56.00;;;;;;5012642;28;20038;-68
2022/01/28 10:13:46;;;;;;;12.10;4.18;;;16.60;56.00;;;;;;5010992;28;20038;-69
2022/01/28 10:16:16;;;;;;;11.40;5.00;;;16.60;56.00;;;;;;5017034;28;20113;-69
2022/01/28 10:18:47;;;;;;;11.93;4.60;;;16.60;56.00;;;;;;5020199;28;20513;-69
2022/01/28 10:21:18;;;;;;;10.75;4.07;;;16.60;55.90;;;;;;5015844;28;20083;-69
2022/01/28 10:24:03;;;;;;;12.05;4.15;;;16.60;55.90;;;;;;5014487;28;20041;-70
2022/01/28 10:26:41;;;;;;;11.73;3.92;;;16.60;55.90;;;;;;5016773;28;20048;-69
2022/01/28 10:29:15;;;;;;;10.95;3.92;;;16.60;55.80;;;;;;5011835;28;20081;-68
2022/01/28 10:31:51;;;;;;;10.57;4.40;;;16.60;55.80;;;;;;4993834;28;20026;-68
2022/01/28 10:34:26;;;;;;;10.10;4.35;;;16.60;55.70;;;;;;5002784;28;20025;-68
2022/01/28 10:37:08;;;;;;;9.77;4.17;;;16.60;55.60;;;;;;5011931;28;20026;-66
2022/01/28 10:39:50;;;;;;;8.50;3.65;;;16.60;55.60;;;;;;5018600;28;20116;-67
2022/01/28 10:42:25;;;;;;;8.85;3.38;;;16.60;55.50;;;;;;5011421;28;20030;-66
2022/01/28 10:44:58;;;;;;;6.85;2.97;;;16.60;55.50;;;;;;5017318;28;20113;-67
2022/01/28 10:47:39;;;;;;;9.23;3.63;;;16.70;55.80;;;;;;5008517;28;20109;-65
2022/01/28 10:50:34;;;;;;;7.45;3.20;;;16.60;56.00;;;;;;5006862;28;20061;-68
2022/01/28 10:53:19;;;;;;;8.95;2.85;;;16.60;56.20;;;;;;5010439;28;20041;-67
2022/01/28 10:55:45;;;;;;;;;;;16.60;56.40;;;;;;5010719;28;20572;-66
2022/01/28 10:58:13;;;;;;;5.90;2.80;;;16.60;56.30;;;;;;5020267;28;19915;-67
2022/01/28 11:00:40;;;;;;;8.35;3.15;;;16.70;56.40;;;;;;5015809;28;20029;-69
2022/01/28 11:03:07;;;;;;;6.15;2.35;;;16.60;56.40;;;;;;5019243;28;20041;-68
2022/01/28 11:05:34;;;;;;;7.55;2.80;;;16.70;56.40;;;;;;5017612;28;20030;-68
2022/01/28 11:08:00;;;;;;;8.00;2.60;;;16.70;56.40;;;;;;5020268;28;20083;-68
2022/01/28 11:10:26;;;;;;;7.53;2.85;;;16.70;56.40;;;;;;5011169;28;20493;-68
2022/01/28 11:12:52;;;;;;;9.05;2.85;;;16.70;56.40;;;;;;5012592;28;20081;-68
2022/01/28 11:15:17;;;;;;;8.75;3.30;;;16.70;56.30;;;;;;5011067;28;20030;-68
2022/01/28 11:17:43;;;;;;;4.88;2.42;;;16.70;56.30;;;;;;5010229;28;20498;-67
2022/01/28 11:20:09;;;;;;;8.10;2.70;;;16.70;56.20;;;;;;5017910;28;20040;-68
2022/01/28 11:23:10;;;;;;;6.00;2.42;;;16.70;56.20;;;;;;4994356;28;20104;-68
2022/01/28 11:26:13;;;;;;;5.20;2.60;;;16.70;56.20;;;;;;5018863;28;20482;-68
2022/01/28 11:28:46;;;;;;;6.18;2.65;;;16.70;56.10;;;;;;5011383;28;20033;-68
2022/01/28 11:31:12;;;;;;;6.43;2.80;;;16.70;56.10;;;;;;5006277;28;20096;-68
2022/01/28 11:33:45;;;;;;;6.10;2.53;;;16.70;56.10;;;;;;5007920;28;20543;-68
2022/01/28 11:36:11;;;;;;;5.68;2.28;;;16.70;56.00;;;;;;5008471;28;20037;-68
2022/01/28 11:38:39;;;;;;;6.53;2.42;;;16.60;56.00;;;;;;5010218;28;20137;-68
2022/01/28 11:41:14;;;;;;;5.47;1.80;;;16.70;56.00;;;;;;5024001;28;20692;-68
2022/01/28 11:43:51;;;;;;;4.70;2.15;;;16.60;56.00;;;;;;5010402;28;20026;-68
2022/01/28 11:46:27;;;;;;;6.47;2.63;;;16.60;55.90;;;;;;5012051;28;20022;-68
2022/01/28 11:48:53;;;;;;;5.07;2.10;;;16.60;55.90;;;;;;5007464;28;20599;-69
2022/01/28 11:51:20;;;;;;;6.05;2.17;;;16.60;55.80;;;;;;5012540;28;20113;-68
2022/01/28 11:54:05;;;;;;;7.47;2.63;;;16.60;55.70;;;;;;5015281;28;20022;-68
2022/01/28 11:56:30;;;;;;;6.38;2.42;;;16.70;55.80;;;;;;5006820;28;20113;-67
2022/01/28 11:59:09;;;;;;;6.97;2.40;;;16.60;55.70;;;;;;5020335;28;20673;-67
2022/01/28 12:01:43;;;;;;;4.50;1.75;;;16.60;55.80;;;;;;5024322;28;20032;-68
2022/01/28 12:04:27;;;;;;;5.15;2.47;;;16.60;55.90;;;;;;5013365;28;20029;-69
2022/01/28 12:07:15;;;;;;;9.20;2.25;;;16.50;56.00;;;;;;5021533;28;20052;-69
2022/01/28 12:09:43;;;;;;;2.75;1.45;;;16.50;56.00;;;;;;5014970;28;20083;-68
2022/01/28 12:12:10;;;;;;;4.00;1.90;;;16.50;56.00;;;;;;5017406;28;20112;-68
2022/01/28 12:15:07;;;;;;;6.22;2.17;;;16.50;56.10;;;;;;5012023;28;20029;-68
2022/01/28 12:17:35;;;;;;;3.90;1.70;;;16.50;56.20;;;;;;5011969;28;20381;-68
2022/01/28 12:20:14;;;;;;;4.47;1.70;;;16.50;56.20;;;;;;5010754;28;20033;-68
2022/01/28 12:22:59;;;;;;;6.00;2.35;;;16.50;56.20;;;;;;5019054;28;20026;-68
2022/01/28 12:25:36;;;;;;;5.60;1.90;;;16.50;56.20;;;;;;5016795;28;20739;-68
2022/01/28 12:28:23;;;;;;;4.90;1.70;;;16.50;56.10;;;;;;5008769;28;20087;-68
2022/01/28 12:31:04;;;;;;;6.57;1.65;;;16.50;56.10;;;;;;5006916;28;20117;-68
2022/01/28 12:33:31;;;;;;;5.38;1.85;;;16.50;56.20;;;;;;5009908;28;20037;-68
2022/01/28 12:36:00;;;;;;;2.80;1.40;;;16.50;56.20;;;;;;5020484;28;20463;-68
2022/01/28 12:38:29;;;;;;;4.22;1.65;;;16.50;56.20;;;;;;5008424;28;20057;-68
2022/01/28 12:40:57;;;;;;;6.35;1.85;;;16.50;56.20;;;;;;5013147;28;20117;-67
2022/01/28 12:43:25;;;;;;;10.52;1.90;;;16.50;56.10;;;;;;5011416;28;20045;-68
2022/01/28 12:46:02;;;;;;;5.93;1.70;;;16.60;56.10;;;;;;5012034;28;20044;-65
2022/01/28 12:48:27;;;;;;;5.60;1.52;;;16.60;56.30;;;;;;5009291;28;20580;-69
2022/01/28 12:50:53;;;;;;;6.43;2.05;;;16.50;56.50;;;;;;5014562;28;20033;-69
2022/01/28 12:53:31;;;;;;;6.78;2.60;;;16.50;56.60;;;;;;5019389;28;20040;-68
2022/01/28 12:55:59;;;;;;;4.72;1.85;;;16.50;56.80;;;;;;5021279;28;20026;-68
2022/01/28 12:58:35;;;;;;;4.70;1.88;;;16.50;56.80;;;;;;5012503;28;20041;-68
2022/01/28 13:01:14;;;;;;;4.07;1.25;;;16.60;56.90;;;;;;5020449;28;20494;-69
2022/01/28 13:03:56;;;;;;;7.45;1.77;;;16.50;56.80;;;;;;5014497;28;20038;-68
2022/01/28 13:08:58;;;;;;;4.82;1.67;;;16.60;56.90;;;;;;5017845;28;20589;-67
2022/01/28 13:11:24;;;;;;;6.95;1.55;;;16.60;56.90;;;;;;5015853;28;20305;-67
2022/01/28 13:13:54;;;;;;;6.68;1.40;;;16.60;56.90;;;;;;5003443;28;20516;-68
2022/01/28 13:16:33;;;;;;;7.82;2.35;;;16.60;57.00;;;;;;5006489;28;20430;-66
2022/01/28 13:18:59;;;;;;;4.72;1.77;;;16.60;57.10;;;;;;5023672;28;20170;-68
2022/01/28 13:21:24;;;;;;;7.45;1.77;;;16.60;57.00;;;;;;5005324;28;20543;-68
2022/01/28 13:24:07;;;;;;;4.03;1.65;;;16.60;57.00;;;;;;5006948;28;20048;-64
2022/01/28 13:26:32;;;;;;;3.67;1.48;;;16.60;57.10;;;;;;5007805;28;20037;-67
2022/01/28 13:29:05;;;;;;;3.45;1.55;;;16.60;57.10;;;;;;5016795;28;20034;-68
2022/01/28 13:31:31;;;;;;;4.63;1.98;;;16.60;57.10;;;;;;4992036;28;20033;-64
2022/01/28 13:34:00;;;;;;;2.78;1.27;;;16.60;57.10;;;;;;5018115;28;20028;-69
2022/01/28 13:36:25;;;;;;;4.63;1.65;;;16.60;57.10;;;;;;5008308;28;20164;-70
2022/01/28 13:38:52;;;;;;;3.80;1.48;;;16.60;57.20;;;;;;5014656;28;20459;-65
2022/01/28 13:41:18;;;;;;;4.68;1.30;;;16.60;57.50;;;;;;5006831;28;20675;-70
2022/01/28 13:43:44;;;;;;;3.67;1.55;;;16.60;58.20;;;;;;5024340;28;20559;-69
2022/01/28 13:46:13;;;;;;;6.13;2.03;;;16.60;57.70;;;;;;5000108;28;20032;-68
2022/01/28 13:48:39;;;;;;;3.28;1.60;;;16.60;57.70;;;;;;5007009;28;20129;-68
2022/01/28 13:51:13;;;;;;;5.18;1.40;;;16.60;57.60;;;;;;5002633;28;20633;-68
2022/01/28 13:56:33;;;;;;;4.70;1.45;;;16.60;57.80;;;;;;5001791;28;20040;-66
2022/01/28 13:58:58;;;;;;;7.07;2.00;;;16.60;57.80;;;;;;5021418;28;20053;-66
2022/01/28 14:01:25;;;;;;;3.95;1.15;;;16.60;57.80;;;;;;5006246;28;20551;-66
2022/01/28 14:03:56;;;;;;;4.05;1.35;;;16.60;57.80;;;;;;5027246;28;20034;-67
2022/01/28 14:06:32;;;;;;;4.15;1.30;;;16.60;57.90;;;;;;5003247;28;20024;-64
2022/01/28 14:09:16;;;;;;;5.93;1.42;;;16.60;57.80;;;;;;5016688;28;20045;-69
2022/01/28 14:11:44;;;;;;;4.93;1.58;;;16.60;57.90;;;;;;5007114;28;20021;-68
2022/01/28 14:14:29;;;;;;;3.78;1.40;;;16.60;57.90;;;;;;5019483;28;20053;-68